Time;durP1;ratioP1;P1;durP2;ratioP2;P2;SDS_P1;SDS_P2;PMS_P1;PMS_P2;Temp;Humidity;BMP_temperature;BMP_pressure;BME280_temperature;BME280_humidity;BME280_pressure;Samples;Min_cycle;Max_cycle;Signal;HPM_P1;HPM_P2
2022/12/06 00:01:39;;;;;;;61.77;31.83;;;;;;;9.94;94.53;100321.16;5051945;28;20329;-70
2022/12/06 00:04:10;;;;;;;57.00;31.03;;;;;;;10.00;94.15;100320.44;5052217;28;20534;-70
2022/12/06 00:06:39;;;;;;;59.07;32.07;;;;;;;10.06;93.63;100335.72;5052079;28;20184;-70
2022/12/06 00:09:06;;;;;;;59.40;32.10;;;;;;;10.06;93.81;100328.56;5052526;28;20273;-70
2022/12/06 00:11:34;;;;;;;55.90;33.40;;;;;;;10.03;94.13;100322.75;5051479;28;20606;-70
2022/12/06 00:14:03;;;;;;;59.43;33.10;;;;;;;10.04;94.13;100321.75;5051497;28;20223;-70
2022/12/06 00:16:30;;;;;;;61.93;30.87;;;;;;;10.07;94.06;100327.59;5051439;28;20244;-70
2022/12/06 00:18:59;;;;;;;58.53;31.73;;;;;;;10.10;93.25;100321.13;5051744;28;20230;-70
2022/12/06 00:21:28;;;;;;;49.97;29.00;;;;;;;10.11;92.95;100322.75;5052293;28;20189;-69
2022/12/06 00:23:57;;;;;;;50.23;30.07;;;;;;;10.13;92.76;100320.78;5051814;28;20247;-69
2022/12/06 00:26:24;;;;;;;49.37;28.43;;;;;;;10.08;92.92;100320.44;5051300;28;20643;-70
2022/12/06 00:28:53;;;;;;;43.90;26.43;;;;;;;10.10;92.89;100315.81;5055454;28;20204;-70
2022/12/06 00:31:22;;;;;;;48.50;26.83;;;;;;;10.14;92.43;100330.38;5055095;28;20201;-70
2022/12/06 00:33:48;;;;;;;54.33;26.77;;;;;;;10.13;92.40;100320.78;5055625;28;20193;-70
2022/12/06 00:36:18;;;;;;;46.60;26.67;;;;;;;10.15;92.20;100313.44;5055177;28;20626;-70
2022/12/06 00:38:46;;;;;;;44.50;26.57;;;;;;;10.16;91.79;100315.09;5055507;28;20626;-70
2022/12/06 00:41:14;;;;;;;48.43;27.10;;;;;;;10.20;91.81;100316.41;5056025;28;20201;-70
2022/12/06 00:43:41;;;;;;;44.13;27.07;;;;;;;10.22;91.96;100314.41;5055395;28;20193;-71
2022/12/06 00:46:12;;;;;;;48.43;26.77;;;;;;;10.22;91.46;100303.81;5055705;28;20197;-70
2022/12/06 00:48:40;;;;;;;44.23;26.07;;;;;;;10.22;91.39;100303.81;5056262;28;20281;-70
2022/12/06 00:51:06;;;;;;;48.73;27.20;;;;;;;10.22;91.11;100303.81;5054907;28;20587;-70
2022/12/06 00:53:33;;;;;;;49.50;26.27;;;;;;;10.23;91.28;100297.47;5056104;28;20246;-70
2022/12/06 00:56:01;;;;;;;50.67;28.07;;;;;;;10.18;90.94;100295.34;5055046;28;20192;-70
2022/12/06 00:58:28;;;;;;;54.47;26.30;;;;;;;10.17;90.96;100295.53;5054872;28;20726;-70
2022/12/06 01:00:55;;;;;;;51.37;28.00;;;;;;;10.15;91.37;100286.91;5054727;28;20192;-70
2022/12/06 01:03:21;;;;;;;49.93;26.43;;;;;;;10.15;90.94;100281.59;5055122;28;20192;-70
2022/12/06 01:05:50;;;;;;;45.63;27.40;;;;;;;10.05;91.33;100275.69;5054950;28;20858;-69
2022/12/06 01:08:18;;;;;;;55.40;28.17;;;;;;;9.94;91.54;100278.69;5054976;28;20283;-69
2022/12/06 01:10:52;;;;;;;48.50;26.83;;;;;;;9.92;92.02;100270.06;5054880;28;20192;-69
2022/12/06 01:13:20;;;;;;;49.67;27.63;;;;;;;9.98;92.65;100264.06;5055131;28;20270;-70
2022/12/06 01:15:47;;;;;;;51.47;28.00;;;;;;;10.00;92.91;100262.06;5054702;28;20242;-69
2022/12/06 01:18:14;;;;;;;46.60;26.70;;;;;;;10.00;92.61;100257.59;5055578;28;20579;-69
2022/12/06 01:20:40;;;;;;;55.53;27.77;;;;;;;10.02;92.47;100260.91;5055190;28;20232;-69
2022/12/06 01:23:07;;;;;;;50.97;26.90;;;;;;;10.02;92.59;100257.41;5054908;28;20196;-69
2022/12/06 01:25:34;;;;;;;44.90;28.37;;;;;;;10.02;92.77;100263.56;5054333;28;20656;-69
2022/12/06 01:28:01;;;;;;;47.63;27.50;;;;;;;10.04;92.70;100260.72;5054534;28;20250;-69
2022/12/06 01:30:29;;;;;;;48.97;28.77;;;;;;;10.03;92.47;100259.06;5054210;28;20193;-70
2022/12/06 01:32:55;;;;;;;48.07;28.07;;;;;;;10.08;92.53;100264.69;5053985;28;20226;-70
2022/12/06 01:35:22;;;;;;;47.13;28.50;;;;;;;10.05;92.59;100259.75;5054129;28;20726;-70
2022/12/06 01:37:49;;;;;;;50.43;28.07;;;;;;;10.06;91.81;100261.41;5054023;28;20681;-69
2022/12/06 01:40:15;;;;;;;50.27;28.73;;;;;;;10.01;91.75;100263.72;5053035;28;20684;-69
2022/12/06 01:42:42;;;;;;;51.00;28.60;;;;;;;9.94;92.33;100263.59;5054179;28;20193;-69
2022/12/06 01:45:10;;;;;;;50.70;27.90;;;;;;;9.97;92.87;100262.44;5054601;28;20196;-69
2022/12/06 01:47:42;;;;;;;48.80;28.80;;;;;;;9.98;93.15;100256.94;5053420;28;20242;-69
2022/12/06 01:50:13;;;;;;;48.87;29.10;;;;;;;9.94;92.85;100252.16;5054916;28;20363;-69
2022/12/06 01:52:46;;;;;;;53.17;27.93;;;;;;;9.88;93.37;100242.22;5053654;28;20224;-69
2022/12/06 01:55:14;;;;;;;47.77;26.90;;;;;;;9.90;93.54;100256.16;5054116;28;20219;-69
2022/12/06 01:57:41;;;;;;;51.97;27.97;;;;;;;9.86;93.07;100254.84;5053679;28;20734;-69
2022/12/06 02:00:09;;;;;;;50.80;28.00;;;;;;;9.80;93.02;100251.03;5053768;28;20203;-70
2022/12/06 02:02:36;;;;;;;55.03;29.67;;;;;;;9.72;93.78;100253.72;5053585;28;20611;-70
2022/12/06 02:05:05;;;;;;;56.17;28.57;;;;;;;9.70;93.97;100245.13;5053970;28;20630;-69
2022/12/06 02:07:32;;;;;;;52.50;28.97;;;;;;;9.69;93.92;100237.34;5053727;28;20552;-69
2022/12/06 02:09:59;;;;;;;50.13;28.33;;;;;;;9.75;94.31;100241.94;5053561;28;20206;-69
2022/12/06 02:12:26;;;;;;;53.80;28.13;;;;;;;9.79;94.86;100237.94;5053489;28;20274;-69
2022/12/06 02:14:55;;;;;;;51.40;29.53;;;;;;;9.80;94.73;100229.81;5054320;28;20192;-69
2022/12/06 02:17:37;;;;;;;52.90;28.03;;;;;;;9.87;94.52;100232.59;5053599;28;20193;-69
2022/12/06 02:20:32;;;;;;;47.80;28.30;;;;;;;9.90;94.43;100233.09;5053857;28;20227;-70
2022/12/06 02:23:27;;;;;;;58.17;30.43;;;;;;;9.93;93.94;100234.56;5039456;28;20262;-71
2022/12/06 02:26:15;;;;;;;52.20;29.67;;;;;;;9.94;94.43;100233.56;5053894;28;20188;-71
2022/12/06 02:29:09;;;;;;;50.47;28.30;;;;;;;9.91;94.21;100236.56;5053699;28;20204;-71
2022/12/06 02:31:41;;;;;;;46.20;27.70;;;;;;;9.93;94.44;100240.69;5053193;28;20257;-70
2022/12/06 02:34:13;;;;;;;53.93;29.17;;;;;;;9.95;94.28;100235.22;5053135;28;20242;-71
2022/12/06 02:36:48;;;;;;;55.13;29.50;;;;;;;9.97;93.96;100235.88;5052916;28;20722;-70
2022/12/06 02:39:23;;;;;;;44.70;26.93;;;;;;;9.99;93.85;100236.53;5054157;28;20185;-70
2022/12/06 02:41:57;;;;;;;56.00;30.60;;;;;;;10.03;93.95;100237.81;5052857;28;20192;-70
2022/12/06 02:44:31;;;;;;;49.03;29.67;;;;;;;10.04;94.03;100244.78;5053307;28;20188;-69
2022/12/06 02:47:01;;;;;;;55.13;30.20;;;;;;;10.04;93.96;100236.81;5052737;28;20188;-69
2022/12/06 02:49:33;;;;;;;55.23;28.90;;;;;;;10.02;93.65;100238.84;5052714;28;20201;-69
2022/12/06 02:52:01;;;;;;;51.80;28.40;;;;;;;10.00;94.01;100240.81;5053316;28;20334;-69
2022/12/06 02:54:28;;;;;;;60.47;30.63;;;;;;;9.96;93.69;100247.47;5052989;28;20196;-69
2022/12/06 02:56:55;;;;;;;58.23;28.90;;;;;;;9.91;93.94;100241.88;5052887;28;20193;-69
2022/12/06 02:59:22;;;;;;;52.60;30.30;;;;;;;9.88;93.53;100232.44;5052603;28;20626;-69
2022/12/06 03:01:52;;;;;;;59.53;31.50;;;;;;;9.86;93.67;100238.91;5052846;28;20193;-69
2022/12/06 03:04:45;;;;;;;56.07;31.97;;;;;;;9.83;93.83;100239.25;5052815;28;20189;-68
2022/12/06 03:07:32;;;;;;;60.30;33.17;;;;;;;9.76;94.74;100233.00;5053007;28;20184;-68
2022/12/06 03:10:17;;;;;;;59.57;31.50;;;;;;;9.68;95.32;100230.38;5052416;28;20250;-68
2022/12/06 03:12:55;;;;;;;64.23;33.33;;;;;;;9.76;95.40;100239.13;5052573;28;20254;-70
2022/12/06 03:15:33;;;;;;;61.10;32.70;;;;;;;9.69;95.28;100237.34;5052916;28;20272;-70
2022/12/06 03:18:08;;;;;;;59.53;33.27;;;;;;;9.65;95.46;100236.03;5052553;28;20189;-69
2022/12/06 03:20:42;;;;;;;61.07;33.53;;;;;;;9.60;95.94;100235.72;5052627;28;20224;-70
2022/12/06 03:23:14;;;;;;;59.43;33.50;;;;;;;9.56;96.22;100232.56;5052665;28;20575;-70
2022/12/06 03:25:44;;;;;;;60.07;31.77;;;;;;;9.55;96.41;100228.28;5053081;28;20188;-69
2022/12/06 03:28:13;;;;;;;56.67;32.13;;;;;;;9.51;96.54;100226.13;5052463;28;20283;-71
2022/12/06 03:30:42;;;;;;;58.63;32.20;;;;;;;9.51;97.30;100231.41;5052316;28;20196;-69
2022/12/06 03:33:12;;;;;;;64.80;33.37;;;;;;;9.49;97.75;100220.19;5052158;28;20224;-69
2022/12/06 03:35:43;;;;;;;57.00;32.97;;;;;;;9.45;97.33;100224.16;5052284;28;20230;-69
2022/12/06 03:38:15;;;;;;;63.57;33.07;;;;;;;9.48;97.84;100229.13;5052760;28;20184;-69
2022/12/06 03:40:47;;;;;;;59.93;33.23;;;;;;;9.50;98.27;100227.97;5052141;28;20250;-69
2022/12/06 03:43:14;;;;;;;58.67;33.57;;;;;;;9.53;97.89;100229.44;5052343;28;20188;-69
2022/12/06 03:45:46;;;;;;;69.03;35.83;;;;;;;9.52;97.53;100220.66;5051924;28;20250;-69
2022/12/06 03:48:17;;;;;;;68.37;34.97;;;;;;;9.50;97.61;100221.81;5052405;28;20255;-70
2022/12/06 03:50:50;;;;;;;62.70;34.10;;;;;;;9.55;97.64;100217.66;5051751;28;20664;-69
2022/12/06 03:53:17;;;;;;;63.23;33.77;;;;;;;9.56;97.37;100221.16;5051631;28;20219;-70
2022/12/06 03:55:44;;;;;;;67.30;37.07;;;;;;;9.48;97.35;100214.03;5051782;28;20191;-70
2022/12/06 03:58:11;;;;;;;64.90;34.90;;;;;;;9.39;97.73;100215.06;5052552;28;20255;-70
2022/12/06 04:00:38;;;;;;;72.30;36.63;;;;;;;9.46;98.48;100215.19;5051910;28;20196;-69
2022/12/06 04:03:05;;;;;;;69.33;36.53;;;;;;;9.49;98.35;100220.19;5055101;28;20228;-69
2022/12/06 04:05:31;;;;;;;64.63;35.10;;;;;;;9.46;97.96;100223.16;5056983;28;20247;-70
2022/12/06 04:07:59;;;;;;;65.80;35.37;;;;;;;9.39;97.59;100219.56;5056307;28;20250;-70
2022/12/06 04:10:26;;;;;;;67.60;37.10;;;;;;;9.34;98.02;100219.22;5056654;28;20196;-69
2022/12/06 04:13:04;;;;;;;70.37;37.87;;;;;;;9.36;98.92;100219.91;5055577;28;20247;-70
2022/12/06 04:15:34;;;;;;;73.20;37.13;;;;;;;9.35;98.53;100218.25;5056567;28;20180;-70
2022/12/06 04:18:10;;;;;;;70.27;38.50;;;;;;;9.37;98.88;100216.25;5056636;28;20192;-70
2022/12/06 04:23:26;;;;;;;66.63;35.60;;;;;;;9.32;99.92;100208.78;5056089;28;20644;-70
2022/12/06 04:25:53;;;;;;;69.33;34.83;;;;;;;9.37;100.00;100206.47;5055740;28;20196;-71
2022/12/06 04:39:18;;;;;;;65.90;33.83;;;;;;;9.12;100.00;100212.00;5055325;28;20291;-70
2022/12/06 04:44:29;;;;;;;64.10;33.53;;;;;;;9.18;100.00;100211.31;5055183;28;20183;-71
2022/12/06 04:46:56;;;;;;;74.47;35.67;;;;;;;9.18;100.00;100216.63;5055144;28;20193;-71
2022/12/06 04:49:25;;;;;;;60.97;33.13;;;;;;;9.16;100.00;100214.16;5055205;28;20258;-71
2022/12/06 04:51:52;;;;;;;58.87;32.67;;;;;;;9.19;100.00;100207.69;5055312;28;20192;-71
2022/12/06 04:54:20;;;;;;;75.83;33.77;;;;;;;9.21;100.00;100216.28;5054790;28;20224;-71
2022/12/06 04:56:47;;;;;;;56.77;31.80;;;;;;;9.18;100.00;100217.44;5055192;28;20193;-70
2022/12/06 04:59:13;;;;;;;68.37;30.97;;;;;;;9.17;100.00;100215.81;5055365;28;20250;-70
2022/12/06 05:01:40;;;;;;;48.57;28.10;;;;;;;9.11;100.00;100221.75;5054761;28;20254;-70
2022/12/06 05:04:07;;;;;;;47.03;27.37;;;;;;;9.09;99.71;100220.28;5055131;28;20645;-70
2022/12/06 05:06:34;;;;;;;60.57;27.90;;;;;;;9.11;99.89;100220.97;5054668;28;20188;-70
2022/12/06 05:09:00;;;;;;;51.23;28.10;;;;;;;9.10;99.52;100236.03;5054539;28;20197;-70
2022/12/06 05:11:29;;;;;;;49.73;27.17;;;;;;;9.03;98.93;100226.28;5054885;28;20246;-72
2022/12/06 05:13:55;;;;;;;41.43;24.97;;;;;;;9.00;99.59;100229.25;5054228;28;20217;-71
2022/12/06 05:16:22;;;;;;;44.60;25.53;;;;;;;8.88;99.97;100233.22;5054518;28;20680;-70
2022/12/06 05:18:48;;;;;;;41.13;24.43;;;;;;;8.81;99.96;100234.88;5054515;28;20192;-71
2022/12/06 05:21:18;;;;;;;56.20;27.13;;;;;;;8.65;100.00;100229.59;5055007;28;20193;-71
2022/12/06 05:23:46;;;;;;;44.57;25.27;;;;;;;8.55;100.00;100221.00;5054249;28;20192;-71
2022/12/06 05:26:14;;;;;;;59.10;27.57;;;;;;;8.58;100.00;100202.13;5054560;28;20254;-72
2022/12/06 05:28:43;;;;;;;47.40;26.67;;;;;;;8.72;100.00;100220.00;5054703;28;20188;-72
2022/12/06 05:31:10;;;;;;;50.53;26.67;;;;;;;8.78;100.00;100224.66;5054498;28;20246;-72
2022/12/06 05:33:38;;;;;;;42.37;24.63;;;;;;;8.83;100.00;100222.31;5054309;28;20220;-71
2022/12/06 05:36:08;;;;;;;45.67;25.27;;;;;;;8.87;100.00;100228.94;5054163;28;20192;-72
2022/12/06 05:38:34;;;;;;;40.20;24.03;;;;;;;8.87;100.00;100223.63;5054107;28;20199;-69
2022/12/06 05:41:01;;;;;;;43.13;25.90;;;;;;;8.85;100.00;100221.16;5054215;28;20196;-69
2022/12/06 05:43:29;;;;;;;42.80;24.63;;;;;;;8.83;100.00;100217.81;5054244;28;20200;-69
2022/12/06 05:45:57;;;;;;;51.40;24.20;;;;;;;8.79;100.00;100215.69;5054081;28;20223;-70
2022/12/06 05:48:24;;;;;;;47.40;24.57;;;;;;;8.83;100.00;100227.63;5054274;28;20196;-70
2022/12/06 05:50:52;;;;;;;40.60;25.93;;;;;;;8.78;100.00;100224.66;5053540;28;20303;-71
2022/12/06 05:53:20;;;;;;;45.63;25.80;;;;;;;8.86;100.00;100232.59;5053881;28;20230;-70
2022/12/06 05:55:47;;;;;;;49.07;26.53;;;;;;;8.92;100.00;100224.78;5053416;28;20247;-71
2022/12/06 05:58:13;;;;;;;87.63;27.60;;;;;;;8.98;100.00;100220.63;5053630;28;20617;-71
2022/12/06 06:00:40;;;;;;;53.67;27.20;;;;;;;9.03;100.00;100224.44;5053333;28;20196;-71
2022/12/06 06:03:08;;;;;;;69.03;28.30;;;;;;;9.05;99.55;100232.22;5053452;28;20200;-71
2022/12/06 06:05:35;;;;;;;47.83;25.20;;;;;;;9.02;99.69;100232.53;5053804;28;20242;-70
2022/12/06 06:08:01;;;;;;;54.77;26.33;;;;;;;9.08;99.23;100221.28;5053661;28;20254;-70
2022/12/06 06:10:28;;;;;;;62.53;28.00;;;;;;;9.16;99.23;100229.22;5052977;28;20250;-70
2022/12/06 06:12:55;;;;;;;53.27;30.00;;;;;;;9.12;98.46;100230.56;5053618;28;20271;-70
2022/12/06 06:15:21;;;;;;;133.47;31.83;;;;;;;9.18;98.79;100232.50;5053210;28;20258;-71
2022/12/06 06:17:48;;;;;;;119.33;32.33;;;;;;;9.22;98.66;100220.56;5053463;28;20254;-70
2022/12/06 06:20:16;;;;;;;101.37;33.87;;;;;;;9.29;98.47;100229.50;5053294;28;20232;-70
2022/12/06 06:22:43;;;;;;;87.87;33.23;;;;;;;9.31;97.96;100216.94;5053042;28;20250;-70
2022/12/06 06:25:10;;;;;;;55.60;27.00;;;;;;;9.41;98.16;100212.25;5052756;28;20270;-70
2022/12/06 06:27:37;;;;;;;124.17;35.60;;;;;;;9.50;98.70;100197.94;5053371;28;20256;-69
2022/12/06 06:30:05;;;;;;;113.53;34.10;;;;;;;9.68;97.20;100217.94;5052428;28;20250;-72
2022/12/06 06:32:32;;;;;;;121.30;32.00;;;;;;;9.76;96.65;100222.41;5047706;28;20216;-74
2022/12/06 06:34:58;;;;;;;58.47;30.27;;;;;;;9.79;95.75;100220.22;5051430;28;21045;-68
2022/12/06 06:37:27;;;;;;;59.07;30.40;;;;;;;9.80;95.91;100223.72;5052922;28;20196;-69
2022/12/06 06:39:53;;;;;;;71.83;32.90;;;;;;;9.83;95.23;100212.72;5052418;28;20192;-71
2022/12/06 06:42:20;;;;;;;93.13;32.77;;;;;;;9.83;95.26;100212.72;5052490;28;20257;-72
2022/12/06 06:44:47;;;;;;;54.20;28.40;;;;;;;9.94;95.31;100212.34;5051921;28;20200;-71
2022/12/06 06:47:13;;;;;;;73.67;33.80;;;;;;;10.01;94.89;100218.63;5047822;28;20734;-70
2022/12/06 06:49:40;;;;;;;92.13;30.23;;;;;;;10.06;94.15;100222.41;5045849;28;20201;-69
2022/12/06 06:52:07;;;;;;;240.10;41.23;;;;;;;10.12;93.96;100223.53;5032782;28;20231;-69
2022/12/06 06:54:35;;;;;;;91.87;33.10;;;;;;;10.14;93.25;100221.56;5032702;28;20248;-70
2022/12/06 06:57:02;;;;;;;63.00;32.13;;;;;;;10.19;93.54;100224.50;5048944;28;20568;-72
2022/12/06 06:59:29;;;;;;;63.07;33.50;;;;;;;10.19;93.11;100224.50;5052524;28;20199;-72
2022/12/06 07:01:56;;;;;;;147.00;37.57;;;;;;;10.21;93.16;100228.63;5052513;28;20196;-72
2022/12/06 07:04:22;;;;;;;86.40;35.33;;;;;;;10.18;93.17;100228.16;5052696;28;20192;-72
2022/12/06 07:06:49;;;;;;;70.43;32.90;;;;;;;10.27;93.29;100229.75;5051459;28;20242;-72
2022/12/06 07:09:16;;;;;;;79.00;32.77;;;;;;;10.30;92.36;100232.06;5052538;28;20250;-72
2022/12/06 07:11:44;;;;;;;53.53;30.30;;;;;;;10.31;93.01;100228.41;5052169;28;20192;-72
2022/12/06 07:14:11;;;;;;;71.20;35.23;;;;;;;10.32;91.38;100225.56;5052322;28;20218;-70
2022/12/06 07:16:37;;;;;;;71.30;28.40;;;;;;;10.30;91.67;100222.25;5052387;28;20193;-73
2022/12/06 07:19:04;;;;;;;52.60;27.20;;;;;;;10.30;91.18;100216.13;5051757;28;20753;-72
2022/12/06 07:21:31;;;;;;;53.03;27.00;;;;;;;10.21;90.91;100211.88;5053001;28;20244;-70
2022/12/06 07:23:59;;;;;;;118.73;29.60;;;;;;;10.22;91.27;100214.34;5052374;28;20254;-70
2022/12/06 07:26:27;;;;;;;119.53;31.57;;;;;;;10.22;91.25;100203.72;5052050;28;20743;-75
2022/12/06 07:28:56;;;;;;;45.53;27.50;;;;;;;10.29;90.49;100206.50;5052083;28;20254;-71
2022/12/06 07:31:25;;;;;;;43.13;25.97;;;;;;;10.28;89.54;100218.13;5052338;28;20219;-70
2022/12/06 07:33:54;;;;;;;49.67;27.57;;;;;;;10.24;90.18;100219.47;5060977;28;20257;-75
2022/12/06 07:36:21;;;;;;;46.93;26.30;;;;;;;10.19;90.05;100213.88;5071178;28;20192;-73
2022/12/06 07:38:49;;;;;;;48.47;25.90;;;;;;;10.15;90.10;100212.56;5058748;28;20189;-76
2022/12/06 07:46:43;;;;;;;65.43;27.10;;;;;;;10.52;89.05;100217.94;5018284;28;20192;-72
2022/12/06 07:49:11;;;;;;;46.80;26.73;;;;;;;10.48;88.46;100216.66;5049655;28;20204;-72
2022/12/06 07:51:38;;;;;;;48.77;27.47;;;;;;;10.54;89.01;100213.31;5050591;28;20192;-74
2022/12/06 07:54:05;;;;;;;55.70;28.97;;;;;;;10.62;88.64;100213.25;5050428;28;20248;-73
2022/12/06 07:56:32;;;;;;;51.17;28.20;;;;;;;10.69;88.48;100206.19;5042097;28;20192;-73
2022/12/06 07:58:59;;;;;;;51.23;29.60;;;;;;;10.79;88.54;100212.09;5041748;28;20185;-72
2022/12/06 08:01:27;;;;;;;54.73;30.63;;;;;;;10.95;88.30;100206.63;5050722;28;20242;-72
2022/12/06 08:03:55;;;;;;;60.20;30.30;;;;;;;11.13;87.88;100215.06;5051320;28;20193;-76
2022/12/06 08:06:21;;;;;;;66.13;31.10;;;;;;;11.30;87.75;100216.53;5050624;28;20197;-77
2022/12/06 08:08:48;;;;;;;55.53;30.13;;;;;;;11.54;86.71;100216.28;5034323;28;20190;-75
2022/12/06 08:11:15;;;;;;;77.87;31.73;;;;;;;11.66;84.46;100217.50;5031662;28;20194;-77
2022/12/06 08:13:41;;;;;;;66.23;30.23;;;;;;;11.71;82.98;100215.09;5045257;28;20694;-73
2022/12/06 08:16:11;;;;;;;48.50;27.10;;;;;;;11.69;82.36;100225.13;5050959;28;20198;-75
2022/12/06 08:18:40;;;;;;;55.63;28.90;;;;;;;11.72;82.76;100211.41;5037303;28;20186;-74
2022/12/06 08:21:07;;;;;;;42.33;25.83;;;;;;;11.72;81.13;100216.75;5032521;28;20696;-75
2022/12/06 08:23:34;;;;;;;52.93;26.37;;;;;;;11.84;81.66;100225.91;5031318;28;20205;-74
2022/12/06 08:26:02;;;;;;;74.57;27.40;;;;;;;11.93;80.52;100219.47;5037896;28;20194;-72
2022/12/06 08:28:30;;;;;;;67.23;27.07;;;;;;;11.99;80.64;100202.75;5040169;28;20514;-76
2022/12/06 08:30:57;;;;;;;55.17;25.97;;;;;;;12.18;79.68;100204.81;5050738;28;20198;-77
2022/12/06 08:33:24;;;;;;;46.77;25.70;;;;;;;12.38;78.51;100208.50;5052939;28;20277;-75
2022/12/06 08:35:52;;;;;;;50.07;25.73;;;;;;;12.45;78.37;100204.03;5051128;28;20232;-72
2022/12/06 08:38:19;;;;;;;57.57;27.73;;;;;;;12.55;77.75;100201.91;5051307;28;20608;-73
2022/12/06 08:40:46;;;;;;;67.67;28.27;;;;;;;12.75;77.22;100200.22;5051061;28;20195;-78
2022/12/06 08:43:13;;;;;;;49.13;25.47;;;;;;;12.87;76.72;100193.31;5051264;28;20195;-77
2022/12/06 08:45:39;;;;;;;51.53;25.33;;;;;;;13.02;76.19;100196.75;5051192;28;20201;-76
2022/12/06 08:48:06;;;;;;;45.17;25.80;;;;;;;13.06;74.87;100198.03;5051598;28;20198;-74
2022/12/06 08:50:33;;;;;;;52.70;24.57;;;;;;;13.13;75.55;100193.56;5055015;28;20252;-78
2022/12/06 08:53:01;;;;;;;61.27;26.60;;;;;;;13.21;74.07;100190.75;5054746;28;20255;-76
2022/12/06 08:55:28;;;;;;;53.70;27.33;;;;;;;13.19;74.67;100191.97;5054267;28;20707;-77
2022/12/06 08:57:55;;;;;;;64.57;27.67;;;;;;;13.22;74.75;100188.88;5054378;28;20254;-76
2022/12/06 09:00:22;;;;;;;59.80;30.17;;;;;;;13.14;75.09;100183.69;5054764;28;20197;-76
2022/12/06 09:02:48;;;;;;;57.17;27.07;;;;;;;13.09;74.93;100176.31;5055008;28;20198;-77
2022/12/06 09:05:15;;;;;;;59.87;30.00;;;;;;;13.15;75.25;100178.19;5053373;28;20650;-75
2022/12/06 09:07:42;;;;;;;55.80;27.43;;;;;;;13.14;74.73;100173.88;5051947;28;20192;-74
2022/12/06 09:10:11;;;;;;;58.00;28.03;;;;;;;13.17;74.45;100172.66;5054117;28;20196;-78
2022/12/06 09:12:38;;;;;;;67.70;30.17;;;;;;;13.15;76.23;100172.84;5052799;28;20201;-69
2022/12/06 09:15:05;;;;;;;60.33;29.33;;;;;;;13.21;75.75;100168.56;5054428;28;20253;-73
2022/12/06 09:17:32;;;;;;;49.40;26.47;;;;;;;13.19;75.84;100162.63;5054278;28;20249;-74
2022/12/06 09:19:58;;;;;;;70.37;28.77;;;;;;;13.20;74.86;100157.09;5054459;28;20278;-72
2022/12/06 09:22:25;;;;;;;49.77;27.43;;;;;;;13.22;73.92;100163.03;5054693;28;20205;-76
2022/12/06 09:24:52;;;;;;;151.37;33.80;;;;;;;13.23;74.19;100151.34;5054368;28;20299;-74
2022/12/06 09:27:20;;;;;;;63.33;27.47;;;;;;;13.35;75.36;100148.97;5052831;28;20266;-69
2022/12/06 09:29:47;;;;;;;90.63;30.93;;;;;;;13.42;75.73;100155.97;5051455;28;20222;-72
2022/12/06 09:32:14;;;;;;;177.90;35.47;;;;;;;13.37;74.78;100147.75;5054118;28;20195;-70
2022/12/06 09:34:40;;;;;;;84.00;28.87;;;;;;;13.27;75.46;100144.59;5055088;28;20252;-74
2022/12/06 09:37:10;;;;;;;69.03;30.13;;;;;;;13.24;74.67;100141.50;5054050;28;20246;-76
2022/12/06 09:39:40;;;;;;;57.53;28.20;;;;;;;13.11;74.63;100139.56;5050951;28;20184;-74
2022/12/06 09:42:49;;;;;;;50.30;26.80;;;;;;;12.99;75.46;100130.47;5051893;28;20260;-70
2022/12/06 09:45:53;;;;;;;51.10;28.80;;;;;;;12.91;75.81;100125.25;5047995;28;20764;-70
2022/12/06 09:48:45;;;;;;;80.43;30.43;;;;;;;12.92;76.29;100116.28;5052979;28;20191;-71
2022/12/06 09:51:26;;;;;;;56.07;28.13;;;;;;;12.75;75.18;100096.28;5052782;28;20192;-71
2022/12/06 09:54:10;;;;;;;57.60;28.10;;;;;;;12.89;75.54;100110.47;5052878;28;20722;-71
2022/12/06 09:56:42;;;;;;;64.20;28.80;;;;;;;12.76;75.31;100116.56;5053727;28;20204;-71
2022/12/06 09:59:16;;;;;;;59.23;29.27;;;;;;;12.61;76.16;100107.00;5053100;28;20238;-71
2022/12/06 10:02:17;;;;;;;57.23;29.53;;;;;;;12.55;76.87;100089.97;5052951;28;20189;-70
2022/12/06 10:04:58;;;;;;;70.30;29.90;;;;;;;12.63;77.42;100095.16;5053174;28;20191;-70
2022/12/06 10:07:33;;;;;;;51.30;27.77;;;;;;;12.63;76.07;100095.16;5053041;28;20611;-70
2022/12/06 10:10:14;;;;;;;54.60;27.40;;;;;;;12.58;75.52;100092.22;5053596;28;20186;-71
2022/12/06 10:12:56;;;;;;;53.83;28.07;;;;;;;12.54;76.94;100085.63;5053231;28;20251;-71
2022/12/06 10:15:33;;;;;;;49.77;27.23;;;;;;;12.64;76.27;100078.13;5053152;28;20249;-71
2022/12/06 10:18:24;;;;;;;57.80;28.73;;;;;;;12.70;76.11;100064.00;5053212;28;20185;-70
2022/12/06 10:20:54;;;;;;;52.90;29.40;;;;;;;12.78;76.05;100061.19;5053149;28;20289;-71
2022/12/06 10:23:32;;;;;;;58.53;30.77;;;;;;;12.83;76.39;100058.75;5052178;28;20188;-72
2022/12/06 10:26:08;;;;;;;55.10;30.83;;;;;;;12.83;75.83;100056.09;5050698;28;20629;-73
2022/12/06 10:28:42;;;;;;;58.77;29.93;;;;;;;12.73;75.26;100052.13;5050670;28;20633;-69
2022/12/06 10:31:20;;;;;;;54.40;30.00;;;;;;;12.74;75.98;100041.28;5052870;28;20617;-81
2022/12/06 10:33:54;;;;;;;52.37;29.33;;;;;;;12.81;75.87;100039.47;5052998;28;20707;-77
2022/12/06 10:36:32;;;;;;;59.53;29.70;;;;;;;12.87;75.90;100038.69;5053228;28;20198;-68
2022/12/06 10:39:05;;;;;;;58.53;30.53;;;;;;;12.88;75.50;100035.03;5053424;28;20251;-72
2022/12/06 10:41:39;;;;;;;65.13;32.63;;;;;;;12.86;74.13;100026.38;5053058;28;20190;-73
2022/12/06 10:44:14;;;;;;;69.10;34.10;;;;;;;12.51;76.17;100024.75;5052731;28;20193;-76
2022/12/06 10:47:03;;;;;;;72.03;33.77;;;;;;;12.52;76.93;100013.06;5050671;28;20187;-75
2022/12/06 10:49:37;;;;;;;67.23;33.73;;;;;;;12.52;77.18;100010.41;5050848;28;20186;-73
2022/12/06 10:52:19;;;;;;;73.63;35.33;;;;;;;12.14;78.64;100002.97;5051068;28;20182;-73
2022/12/06 10:54:53;;;;;;;72.07;35.13;;;;;;;11.89;80.44;99997.25;5050688;28;20757;-71
2022/12/06 10:57:28;;;;;;;68.00;34.03;;;;;;;12.08;79.63;99991.25;5050454;28;20191;-69
2022/12/06 11:00:01;;;;;;;72.90;34.13;;;;;;;12.11;79.25;99988.19;5051767;28;20184;-71
2022/12/06 11:02:36;;;;;;;78.10;35.33;;;;;;;12.18;79.20;99998.91;5052460;28;20666;-69
2022/12/06 11:05:14;;;;;;;68.37;32.33;;;;;;;12.22;79.55;99985.00;5052928;28;20193;-71
2022/12/06 11:07:45;;;;;;;87.50;34.77;;;;;;;12.37;78.43;99999.03;5052364;28;20718;-72
2022/12/06 11:10:19;;;;;;;65.27;33.77;;;;;;;12.43;78.23;99990.28;5052248;28;20248;-74
2022/12/06 11:12:48;;;;;;;94.30;35.17;;;;;;;12.20;79.05;99987.03;5051059;28;20648;-74
2022/12/06 11:15:20;;;;;;;63.83;30.93;;;;;;;12.32;79.01;99968.66;5051778;28;20288;-75
2022/12/06 11:17:52;;;;;;;65.90;32.67;;;;;;;12.42;78.71;99974.47;5052511;28;20191;-74
2022/12/06 11:20:26;;;;;;;61.77;30.93;;;;;;;12.47;77.91;99970.22;5052240;28;20226;-72
2022/12/06 11:23:06;;;;;;;61.17;30.90;;;;;;;12.44;77.35;99967.94;5052393;28;20191;-72
2022/12/06 11:25:42;;;;;;;64.67;29.80;;;;;;;12.53;77.55;99966.75;5052358;28;20201;-76
2022/12/06 11:28:22;;;;;;;61.40;29.67;;;;;;;12.54;77.17;99968.38;5066427;28;20188;-72
2022/12/06 11:30:51;;;;;;;57.10;30.07;;;;;;;12.25;77.66;99946.50;5061420;28;20248;-70
2022/12/06 11:33:21;;;;;;;99.73;36.90;;;;;;;12.36;77.48;99959.25;5051610;28;20229;-71
2022/12/06 11:35:49;;;;;;;51.50;28.33;;;;;;;12.24;77.21;99961.66;5052127;28;20214;-74
2022/12/06 11:38:17;;;;;;;63.07;27.73;;;;;;;12.29;77.86;99951.22;5052003;28;20257;-71
2022/12/06 11:40:46;;;;;;;51.00;27.50;;;;;;;12.36;77.62;99954.78;5051815;28;20275;-72
2022/12/06 11:43:17;;;;;;;66.43;28.97;;;;;;;12.42;77.00;99958.50;5052014;28;20596;-73
2022/12/06 11:45:45;;;;;;;55.83;28.90;;;;;;;12.48;77.29;99963.84;5052878;28;20191;-70
2022/12/06 11:48:16;;;;;;;58.23;27.13;;;;;;;12.40;76.03;99960.50;5051992;28;20195;-74